Latest Weather Observations for Bankstown

IDN60801

Issued at 2:52 pm EST Monday 23 September 2019 (issued every 10 minutes, with the page automatically refreshed every 10 minutes)

About weather observations | Map of weather stations | Latest weather observations for NSW | Other Formats
Station Details ID: 066137 Name: BANKSTOWN AIRPORT AWS Lat: -33.92 Lon: 150.98 Height: 7.2 m
Data from the previous 72 hours. | See also: Recent months at Bankstown
Date/Time
EST
Temp
°C
App
Temp
°C
Dew
Point
°C
Rel
Hum
%
Delta-T
°C
Wind Press
QNH
hPa
Press
MSL
hPa
Rain since
9am
mm
Dir  Spd
km/h
Gust
km/h
Spd
kts
Gust
kts
23/02:30pm 20.7 14.8 -1.1 23 9.5 WSW 20 33 11 18 1020.0 1020.0 0.0
23/02:19pm 21.0 13.7 -0.3 24 9.4 W 28 48 15 26 1020.0 1020.0 0.0
23/02:00pm 21.8 15.1 -0.8 22 9.9 WSW 24 39 13 21 1020.0 1020.0 0.0
23/01:30pm 20.7 14.2 0.0 25 9.2 W 24 37 13 20 1020.2 1020.2 0.0
23/01:00pm 20.8 14.7 0.1 25 9.2 WNW 22 37 12 20 1020.3 1020.3 0.0
23/12:30pm 20.6 14.7 -0.7 24 9.3 WSW 20 39 11 21 1020.6 1020.6 0.0
23/12:00pm 20.2 14.4 -0.4 25 9.0 W 20 35 11 19 1020.8 1020.8 0.0
23/11:30am 20.9 15.4 1.7 28 8.8 W 20 39 11 21 1020.9 1020.9 0.0
23/11:00am 19.8 14.4 1.3 29 8.3 W 19 35 10 19 1021.6 1021.6 0.0
23/10:30am 18.8 13.8 1.3 31 7.9 W 17 33 9 18 1022.0 1022.0 0.0
23/10:00am 18.9 14.2 3.1 35 7.3 WNW 17 28 9 15 1022.5 1022.5 0.0
23/09:30am 18.2 15.3 4.4 40 6.6 NNW 9 17 5 9 1022.8 1022.8 0.0
23/09:00am 17.0 14.6 6.8 51 5.0 WNW 9 13 5 7 1023.3 1023.3 0.0
23/08:30am 15.4 13.0 7.2 58 4.0 NNW 9 15 5 8 1023.4 1023.4 0.0
23/08:00am 14.1 12.0 6.7 61 3.6 NW 7 11 4 6 1023.4 1023.4 0.0
23/07:30am 12.9 10.8 6.5 65 3.1 WSW 7 9 4 5 1023.5 1023.5 0.0
23/07:00am 11.3 10.8 8.0 80 1.6 CALM 0 0 0 0 1023.3 1023.3 0.0
23/06:30am 9.8 9.4 8.1 89 0.8 CALM 0 6 0 3 1023.0 1023.0 0.0
23/06:00am 9.2 8.6 7.5 89 0.8 CALM 0 0 0 0 1022.7 1022.7 0.0
23/05:30am 9.6 9.1 7.9 89 0.8 CALM 0 6 0 3 1022.8 1022.8 0.0
23/05:00am 10.0 8.5 8.6 91 0.7 WSW 6 7 3 4 1022.5 1022.5 0.0
23/04:30am 10.5 10.4 9.3 92 0.6 CALM 0 6 0 3 1022.3 1022.3 0.0
23/04:00am 11.0 11.0 9.9 93 0.6 CALM 0 0 0 0 1022.1 1022.1 0.0
23/03:30am 11.0 11.0 9.9 93 0.6 CALM 0 0 0 0 1022.1 1022.1 0.0
23/03:00am 11.5 11.6 10.2 92 0.7 CALM 0 0 0 0 1022.2 1022.2 0.0
23/02:30am 12.0 12.2 10.7 92 0.7 CALM 0 0 0 0 1022.2 1022.2 0.0
23/02:00am 12.4 11.4 11.0 91 0.7 SW 7 7 4 4 1022.3 1022.3 0.0
23/01:30am 13.4 14.0 11.8 90 0.9 CALM 0 0 0 0 1022.4 1022.4 0.0
23/01:00am 13.9 13.8 12.1 89 1.0 SW 4 7 2 4 1022.6 1022.6 0.0
23/12:30am 14.0 13.4 12.2 89 1.0 WSW 7 9 4 5 1022.7 1022.7 0.0
23/12:00am 13.9 13.2 12.1 89 1.0 SW 7 9 4 5 1022.5 1022.5 0.0
 
Date/Time
EST
Temp
°C
App
Temp
°C
Dew
Point
°C
Rel
Hum
%
Delta-T
°C
Wind Press
QNH
hPa
Press
MSL
hPa
Rain since
9am
mm
Dir  Spd
km/h
Gust
km/h
Spd
kts
Gust
kts
22/11:30pm 14.0 13.5 12.0 88 1.1 SW 6 9 3 5 1022.5 1022.5 0.0
22/11:00pm 14.6 14.9 12.3 86 1.2 SW 2 7 1 4 1022.5 1022.5 0.0
22/10:30pm 15.0 15.8 12.7 86 1.3 CALM 0 0 0 0 1022.6 1022.6 0.0
22/10:00pm 15.1 16.0 13.0 87 1.2 CALM 0 0 0 0 1022.7 1022.7 0.0
22/09:30pm 15.2 16.1 12.9 86 1.3 CALM 0 0 0 0 1022.7 1022.7 0.0
22/09:00pm 15.5 15.2 13.3 87 1.2 SW 7 9 4 5 1022.6 1022.6 0.0
22/08:30pm 15.3 15.0 13.3 88 1.1 WSW 7 9 4 5 1022.5 1022.5 0.0
22/08:00pm 14.9 14.4 12.6 86 1.3 SW 7 9 4 5 1022.3 1022.3 0.0
22/07:30pm 15.5 14.7 12.8 84 1.5 SW 9 11 5 6 1022.2 1022.2 0.0
22/07:00pm 16.1 15.2 12.5 79 2.0 SSE 9 11 5 6 1021.9 1021.9 0.0
22/06:30pm 16.9 15.4 13.0 78 2.2 SE 13 19 7 10 1021.5 1021.5 0.0
22/06:00pm 17.4 15.0 12.7 74 2.6 SE 17 22 9 12 1021.3 1021.3 0.0
22/05:30pm 18.1 15.0 12.1 68 3.3 SE 20 26 11 14 1020.8 1020.8 0.0
22/05:00pm 19.2 14.9 9.4 53 5.2 ESE 22 30 12 16 1020.5 1020.5 0.0
22/04:30pm 19.6 13.7 7.7 46 6.1 SE 28 33 15 18 1020.1 1020.1 0.0
22/04:00pm 19.8 14.7 9.1 50 5.6 ESE 26 32 14 17 1019.8 1019.8 0.0
22/03:30pm 20.0 14.7 8.4 47 6.0 SE 26 32 14 17 1019.3 1019.3 0.0
22/03:00pm 20.9 15.3 10.1 50 5.8 ESE 30 37 16 20 1019.0 1019.0 0.0
22/02:30pm 21.1 16.1 9.7 48 6.1 ESE 26 35 14 19 1019.0 1019.0 0.0
22/02:00pm 23.8 22.4 10.8 44 7.2 N 9 17 5 9 1019.1 1019.1 0.0
22/01:30pm 24.1 22.8 11.1 44 7.3 SSW 9 15 5 8 1019.4 1019.4 0.0
22/01:00pm 23.6 22.8 11.0 45 7.0 WNW 6 11 3 6 1020.0 1020.0 0.0
22/12:30pm 22.9 21.5 9.7 43 7.2 NNE 7 13 4 7 1020.4 1020.4 0.0
22/12:00pm 21.9 20.7 9.4 45 6.7 SW 6 15 3 8 1020.8 1020.8 0.0
22/11:30am 21.2 18.3 8.1 43 6.8 SW 13 17 7 9 1021.2 1021.2 0.0
22/11:00am 20.0 17.8 7.7 45 6.3 WSW 9 15 5 8 1021.5 1021.5 0.0
22/10:30am 20.4 17.9 9.6 50 5.8 SW 13 22 7 12 1021.4 1021.4 0.0
22/10:00am 20.6 17.4 9.8 50 5.8 SW 17 30 9 16 1021.3 1021.3 0.0
22/09:30am 19.4 17.2 10.7 57 4.7 SSW 13 20 7 11 1021.6 1021.6 0.0
22/09:00am 18.8 16.3 11.1 61 4.2 SW 15 24 8 13 1021.5 1021.5 0.0
22/08:30am 18.0 16.3 11.1 64 3.7 SW 11 17 6 9 1021.4 1021.4 0.0
22/08:00am 18.0 16.4 11.6 66 3.5 SW 11 17 6 9 1020.8 1020.8 0.0
22/07:30am 17.9 17.0 12.6 71 3.0 SW 9 13 5 7 1020.5 1020.5 0.0
22/07:00am 17.7 17.3 14.0 79 2.1 SW 9 17 5 9 1019.8 1019.8 0.0
22/06:30am 16.9 17.6 14.5 86 1.4 SW 4 11 2 6 1019.3 1019.3 0.0
22/06:00am 16.7 17.0 15.1 90 0.9 SW 7 13 4 7 1019.0 1019.0 0.0
22/05:30am 16.7 18.1 14.3 86 1.4 CALM 0 7 0 4 1018.4 1018.4 0.0
22/05:00am 17.0 18.6 15.0 88 1.2 CALM 0 0 0 0 1018.2 1018.2 0.0
22/04:30am 16.6 18.1 14.6 88 1.1 CALM 0 0 0 0 1017.5 1017.5 0.0
22/04:00am 16.8 18.2 14.4 86 1.4 CALM 0 0 0 0 1017.0 1017.0 0.0
22/03:30am 16.9 18.3 14.5 86 1.4 CALM 0 0 0 0 1017.0 1017.0 0.0
22/03:00am 17.0 17.7 14.6 86 1.4 NNW 4 9 2 5 1016.8 1016.8 0.0
22/02:30am 17.3 18.5 14.8 85 1.4 NNW 2 9 1 5 1016.9 1016.9 0.0
22/02:00am 18.0 19.4 14.5 80 2.0 CALM 0 0 0 0 1017.4 1017.4 0.0
22/01:30am 17.5 19.1 14.8 84 1.6 CALM 0 0 0 0 1017.4 1017.4 0.0
22/01:00am 18.1 19.5 14.4 79 2.1 CALM 0 2 0 1 1017.6 1017.6 0.0
22/12:30am 18.8 19.9 13.6 72 3.0 CALM 0 0 0 0 1017.3 1017.3 0.0
22/12:00am 20.4 19.9 13.8 66 3.8 N 9 15 5 8 1017.5 1017.5 0.0
 
Date/Time
EST
Temp
°C
App
Temp
°C
Dew
Point
°C
Rel
Hum
%
Delta-T
°C
Wind Press
QNH
hPa
Press
MSL
hPa
Rain since
9am
mm
Dir  Spd
km/h
Gust
km/h
Spd
kts
Gust
kts
21/11:30pm 19.4 19.7 14.9 75 2.6 N 7 11 4 6 1017.5 1017.5 0.0
21/11:00pm 17.9 18.9 14.4 80 2.0 N 2 7 1 4 1017.3 1017.3 0.0
21/10:30pm 19.0 20.3 14.1 73 2.8 CALM 0 4 0 2 1017.4 1017.4 0.0
21/10:00pm 19.8 19.1 14.4 71 3.1 NNE 11 15 6 8 1017.5 1017.5 0.0
21/09:30pm 20.5 19.4 14.2 67 3.7 NNE 13 17 7 9 1017.4 1017.4 0.0
21/09:00pm 19.9 20.4 15.5 76 2.6 N 7 9 4 5 1018.1 1018.1 0.0
21/08:30pm 20.1 20.4 16.1 78 2.4 WNW 9 11 5 6 1018.3 1018.3 0.0
21/08:00pm 21.1 21.0 16.1 73 3.0 NNE 11 20 6 11 1017.9 1017.9 0.0
21/07:30pm 21.0 19.9 16.4 75 2.8 NE 17 20 9 11 1017.7 1017.7 0.0
21/07:00pm 20.6 21.7 16.6 78 2.4 SSW 6 7 3 4 1018.3 1018.3 0.0
21/06:30pm 21.6 22.3 16.1 71 3.3 W 7 13 4 7 1018.6 1018.6 0.0
21/06:00pm 21.8 20.9 15.9 69 3.5 NNE 15 19 8 10 1017.1 1017.1 0.0
21/05:30pm 22.3 21.0 15.9 67 3.9 NE 17 22 9 12 1017.0 1017.0 0.0
21/05:00pm 22.4 21.2 16.2 68 3.7 NE 17 24 9 13 1016.7 1016.7 0.0
21/04:30pm 23.2 22.1 16.3 65 4.2 NE 17 28 9 15 1016.6 1016.6 0.0
21/04:00pm 24.0 22.3 15.8 60 5.0 NE 19 30 10 16 1016.4 1016.4 0.0
21/03:30pm 25.8 23.4 12.6 44 7.6 NNE 17 26 9 14 1016.5 1016.5 0.0
21/03:00pm 25.5 22.7 12.7 45 7.4 NNE 19 32 10 17 1016.6 1016.6 0.0
21/02:30pm 26.5 23.6 12.9 43 7.9 NNE 20 33 11 18 1016.7 1016.7 0.0
21/02:00pm 25.3 22.6 13.5 48 6.9 N 20 32 11 17 1017.0 1017.0 0.0
21/01:30pm 25.3 22.5 13.2 47 7.1 NNE 20 33 11 18 1017.2 1017.2 0.0
21/01:00pm 25.0 21.4 12.9 47 7.0 NNE 24 35 13 19 1017.4 1017.4 0.0
21/12:30pm 24.3 21.2 12.3 47 6.9 NNE 20 33 11 18 1017.9 1017.9 0.0
21/12:00pm 23.8 21.7 14.8 57 5.3 NNE 19 28 10 15 1018.7 1018.7 0.0
21/11:30am 22.2 19.7 14.1 60 4.7 NNE 20 30 11 16 1019.4 1019.4 0.0
21/11:00am 21.4 20.3 14.3 64 4.1 NNE 13 22 7 12 1020.1 1020.1 0.0
21/10:30am 20.4 19.4 14.7 70 3.3 NNE 13 20 7 11 1020.7 1020.7 0.0
21/10:00am 19.4 18.7 14.2 72 3.0 NNE 11 15 6 8 1021.2 1021.2 0.0
21/09:30am 19.0 19.0 14.3 74 2.7 N 7 15 4 8 1021.8 1021.8 0.0
21/09:00am 18.4 17.7 14.3 77 2.4 NNE 11 15 6 8 1022.0 1022.0 0.2
21/08:30am 17.9 17.6 14.4 80 2.0 NNE 9 15 5 8 1022.3 1022.3 0.2
21/08:00am 17.4 16.8 14.5 83 1.7 NNE 11 15 6 8 1022.3 1022.3 0.2
21/07:30am 17.1 16.5 14.6 85 1.4 NNE 11 15 6 8 1022.1 1022.1 0.2
21/07:00am 16.7 16.4 14.3 86 1.4 NNE 9 13 5 7 1022.1 1022.1 0.2
21/06:30am 16.1 16.1 14.1 88 1.1 NNE 7 9 4 5 1021.7 1021.7 0.2
21/06:00am 16.0 16.1 14.0 88 1.1 NE 6 7 3 4 1021.5 1021.5 0.2
21/05:30am 16.1 16.0 13.9 87 1.2 NE 7 9 4 5 1021.5 1021.5 0.2
21/05:00am 16.2 16.3 13.9 86 1.3 ENE 6 7 3 4 1021.4 1021.4 0.2
21/04:30am 16.6 16.5 13.9 84 1.5 NE 7 9 4 5 1021.2 1021.2 0.2
21/04:00am 16.8 16.3 13.9 83 1.6 NE 9 11 5 6 1021.3 1021.3 0.2
21/03:30am 16.9 16.9 14.2 84 1.5 NE 7 9 4 5 1021.3 1021.3 0.2
21/03:00am 16.4 17.7 14.1 86 1.3 CALM 0 7 0 4 1021.6 1021.6 0.2
21/02:30am 16.4 17.3 13.9 85 1.4 ENE 2 9 1 5 1021.8 1021.8 0.2
21/02:00am 17.2 18.5 14.1 82 1.8 CALM 0 0 0 0 1022.0 1022.0 0.2
21/01:30am 17.5 17.6 14.4 82 1.8 ENE 7 9 4 5 1022.1 1022.1 0.2
21/01:00am 17.7 17.8 14.4 81 1.9 ENE 7 9 4 5 1022.4 1022.4 0.2
21/12:30am 17.7 18.0 14.4 81 1.9 ENE 6 7 3 4 1022.8 1022.8 0.2
21/12:00am 17.9 18.0 14.4 80 2.0 NE 7 9 4 5 1022.9 1022.9 0.2
 
Date/Time
EST
Temp
°C
App
Temp
°C
Dew
Point
°C
Rel
Hum
%
Delta-T
°C
Wind Press
QNH
hPa
Press
MSL
hPa
Rain since
9am
mm
Dir  Spd
km/h
Gust
km/h
Spd
kts
Gust
kts
20/11:30pm 18.1 18.4 14.6 80 2.0 NNE 6 11 3 6 1023.2 1023.2 0.2
20/11:00pm 18.1 17.9 14.6 80 2.0 NE 9 15 5 8 1023.4 1023.4 0.2
20/10:30pm 18.2 18.0 14.7 80 2.0 NNE 9 13 5 7 1023.5 1023.5 0.2
20/10:00pm 18.6 17.3 14.7 78 2.3 NE 15 26 8 14 1023.4 1023.4 0.2
20/09:30pm 18.7 17.0 14.8 78 2.3 NE 17 26 9 14 1023.6 1023.6 0.2
20/09:00pm 18.5 16.8 14.6 78 2.2 NE 17 26 9 14 1023.7 1023.7 0.2
20/08:30pm 18.3 15.9 14.4 78 2.2 NE 20 32 11 17 1023.8 1023.8 0.2
20/08:00pm 18.3 15.5 14.4 78 2.2 NE 22 32 12 17 1023.7 1023.7 0.2
20/07:30pm 18.4 16.1 14.7 79 2.1 NE 20 33 11 18 1023.5 1023.5 0.2
20/07:00pm 18.4 16.1 14.7 79 2.1 NE 20 30 11 16 1023.1 1023.1 0.2
20/06:30pm 18.5 15.9 14.8 79 2.1 NE 22 32 12 17 1023.0 1023.0 0.2
20/06:00pm 18.6 16.4 14.9 79 2.1 NE 20 33 11 18 1022.9 1022.9 0.2
20/05:30pm 19.1 16.1 14.8 76 2.5 NE 24 37 13 20 1022.6 1022.6 0.2
20/05:00pm 19.6 16.6 14.8 74 2.8 ENE 24 37 13 20 1022.5 1022.5 0.2
20/04:30pm 20.3 17.3 14.9 71 3.2 ENE 24 35 13 19 1022.5 1022.5 0.2
20/04:00pm 20.9 18.0 15.0 69 3.5 ENE 24 35 13 19 1022.2 1022.2 0.2
20/03:30pm 21.0 17.7 14.9 68 3.6 ENE 26 35 14 19 1022.1 1022.1 0.2
20/03:00pm 21.8 19.7 15.2 66 3.9 ENE 20 30 11 16 1022.2 1022.2 0.2

Other formats

Comma delimited format used in spreadsheet applications
http://www.bom.gov.au/fwo/IDN60801/IDN60801.94765.axf

JavaScript Object Notation format (JSON) in row-major order
http://www.bom.gov.au/fwo/IDN60801/IDN60801.94765.json

Data quality

Most of these data are generated automatically and are frequently updated. Quality checks on data are not normally performed. It is possible for incorrect values to appear. Refer to information at About Latest Weather Observations and please check the disclaimer before using these data.